createdAt,value
2018-10-09T00:01:59.796Z,101849.70
2018-10-09T00:04:27.931Z,101842.94
2018-10-09T00:06:56.093Z,101837.60
2018-10-09T00:09:24.208Z,101837.19
2018-10-09T00:11:52.365Z,101828.12
2018-10-09T00:14:20.522Z,101823.16
2018-10-09T00:16:48.664Z,101824.93
2018-10-09T00:19:16.814Z,101829.09
2018-10-09T00:21:44.952Z,101830.80
2018-10-09T00:24:13.128Z,101821.63
2018-10-09T00:26:41.285Z,101815.39
2018-10-09T00:29:09.508Z,101821.86
2018-10-09T00:31:37.648Z,101819.56
2018-10-09T00:34:05.851Z,101818.30
2018-10-09T00:36:34.250Z,101818.11
2018-10-09T00:39:02.402Z,101821.23
2018-10-09T00:41:30.559Z,101829.11
2018-10-09T00:43:58.712Z,101820.37
2018-10-09T00:46:26.820Z,101817.57
2018-10-09T00:48:55.058Z,101809.12
2018-10-09T00:51:23.219Z,101800.95
2018-10-09T00:53:51.440Z,101800.17
2018-10-09T00:56:19.592Z,101804.05
2018-10-09T00:58:47.726Z,101804.31
2018-10-09T01:01:15.892Z,101810.25
2018-10-09T01:03:44.042Z,101804.78
2018-10-09T01:06:12.152Z,101816.55
2018-10-09T01:08:40.284Z,101821.14
2018-10-09T01:11:08.450Z,101819.44
2018-10-09T01:13:36.606Z,101817.77
2018-10-09T01:16:04.742Z,101816.69
2018-10-09T01:18:32.876Z,101815.47
2018-10-09T01:21:01.020Z,101810.70
2018-10-09T01:23:29.304Z,101817.77
2018-10-09T01:25:57.478Z,101816.66
2018-10-09T01:28:25.648Z,101823.53
2018-10-09T01:30:53.818Z,101831.88
2018-10-09T01:33:22.018Z,101830.80
2018-10-09T01:35:50.194Z,101830.00
2018-10-09T01:38:18.340Z,101831.05
2018-10-09T01:40:46.474Z,101831.65
2018-10-09T01:43:14.722Z,101830.82
2018-10-09T01:45:43.035Z,101830.34
2018-10-09T01:48:11.168Z,101832.83
2018-10-09T01:50:39.370Z,101822.20
2018-10-09T01:53:07.500Z,101818.56
2018-10-09T01:55:35.677Z,101810.51
2018-10-09T01:58:03.765Z,101813.48
2018-10-09T02:00:31.908Z,101808.41
2018-10-09T02:03:00.096Z,101815.37
2018-10-09T02:05:28.206Z,101807.02
2018-10-09T02:07:56.360Z,101803.94
2018-10-09T02:10:24.512Z,101807.73
2018-10-09T02:12:52.762Z,101812.58
2018-10-09T02:15:20.908Z,101810.39
2018-10-09T02:17:49.032Z,101812.38
2018-10-09T02:20:17.216Z,101819.52
2018-10-09T02:22:45.357Z,101821.40
2018-10-09T02:25:13.502Z,101818.19
2018-10-09T02:27:41.695Z,101824.86
2018-10-09T02:30:10.237Z,101820.41
2018-10-09T02:32:38.456Z,101834.79
2018-10-09T02:35:06.616Z,101834.70
2018-10-09T02:37:34.830Z,101844.06
2018-10-09T02:40:03.449Z,101846.19
2018-10-09T02:42:31.590Z,101847.25
2018-10-09T02:45:00.039Z,101848.17
2018-10-09T02:47:28.223Z,101853.19
2018-10-09T02:49:56.344Z,101839.25
2018-10-09T02:52:24.484Z,101835.60
2018-10-09T02:54:52.605Z,101840.59
2018-10-09T02:57:20.735Z,101828.35
2018-10-09T02:59:48.934Z,101843.58
2018-10-09T03:02:17.046Z,101830.81
2018-10-09T03:04:46.177Z,101832.47
2018-10-09T03:07:14.296Z,101831.20
2018-10-09T03:09:42.450Z,101835.00
2018-10-09T03:12:10.660Z,101822.97
2018-10-09T03:14:38.856Z,101830.20
2018-10-09T03:17:07.690Z,101830.70
2018-10-09T03:19:36.002Z,101825.20
2018-10-09T03:22:04.141Z,101821.83
2018-10-09T03:24:32.253Z,101811.93
2018-10-09T03:27:00.506Z,101817.23
2018-10-09T03:29:28.664Z,101814.01
2018-10-09T03:31:57.610Z,101810.73
2018-10-09T03:34:25.873Z,101816.31
2018-10-09T03:36:54.152Z,101811.74
2018-10-09T03:39:22.285Z,101812.24
2018-10-09T03:41:50.496Z,101822.59
2018-10-09T03:44:25.713Z,101816.94
2018-10-09T03:46:53.855Z,101814.45
2018-10-09T03:49:22.017Z,101815.63
2018-10-09T03:51:50.177Z,101812.24
2018-10-09T03:54:18.325Z,101812.16
2018-10-09T03:56:46.473Z,101821.11
2018-10-09T03:59:14.611Z,101817.23
2018-10-09T04:01:42.717Z,101813.67
2018-10-09T04:04:10.879Z,101818.42
2018-10-09T04:06:39.015Z,101823.91
2018-10-09T04:09:09.673Z,101823.42
2018-10-09T04:11:37.783Z,101826.58
2018-10-09T04:14:05.959Z,101819.66
2018-10-09T04:16:34.147Z,101817.94
2018-10-09T04:19:02.371Z,101813.13
2018-10-09T04:21:30.539Z,101814.03
2018-10-09T04:23:58.673Z,101816.16
2018-10-09T04:26:26.811Z,101820.03
2018-10-09T04:28:54.975Z,101823.30
2018-10-09T04:31:23.086Z,101824.28
2018-10-09T04:33:51.263Z,101824.36
2018-10-09T04:36:19.405Z,101822.90
2018-10-09T04:38:47.555Z,101825.66
2018-10-09T04:41:15.700Z,101830.44
2018-10-09T04:43:44.586Z,101814.55
2018-10-09T04:46:12.809Z,101819.33
2018-10-09T04:48:40.963Z,101821.11
2018-10-09T04:51:09.103Z,101824.59
2018-10-09T04:53:37.422Z,101814.65
2018-10-09T04:56:05.587Z,101818.98
2018-10-09T04:58:33.789Z,101820.37
2018-10-09T05:01:01.982Z,101820.98
2018-10-09T05:03:30.842Z,101820.59
2018-10-09T05:06:03.147Z,101818.70
2018-10-09T05:08:31.296Z,101820.20
2018-10-09T05:10:59.474Z,101824.36
2018-10-09T05:13:27.643Z,101828.84
2018-10-09T05:15:55.833Z,101832.44
2018-10-09T05:18:24.032Z,101836.10
2018-10-09T05:20:52.201Z,101837.91
2018-10-09T05:23:20.427Z,101846.16
2018-10-09T05:25:48.576Z,101843.75
2018-10-09T05:28:16.799Z,101850.21
2018-10-09T05:30:44.981Z,101859.16
2018-10-09T05:33:13.088Z,101859.85
2018-10-09T05:35:41.359Z,101856.59
2018-10-09T05:38:09.571Z,101860.59
2018-10-09T05:40:38.501Z,101853.25
2018-10-09T05:43:06.871Z,101864.86
2018-10-09T05:45:39.969Z,101869.55
2018-10-09T05:48:09.056Z,101865.09
2018-10-09T05:50:37.233Z,101873.34
2018-10-09T05:53:05.342Z,101872.16
2018-10-09T05:55:33.683Z,101873.04
2018-10-09T05:58:05.889Z,101875.13
2018-10-09T06:00:34.011Z,101882.59
2018-10-09T06:03:02.192Z,101877.73
2018-10-09T06:05:30.993Z,101882.02
2018-10-09T06:07:59.169Z,101887.78
2018-10-09T06:10:27.341Z,101891.45
2018-10-09T06:12:55.542Z,101887.78
2018-10-09T06:15:24.387Z,101899.50
2018-10-09T06:17:53.359Z,101901.90
2018-10-09T06:20:22.117Z,101893.25
2018-10-09T06:22:50.541Z,101893.03
2018-10-09T06:25:18.865Z,101886.97
2018-10-09T06:27:47.562Z,101877.52
2018-10-09T06:30:15.772Z,101887.37
2018-10-09T06:32:44.006Z,101888.75
2018-10-09T06:35:12.166Z,101887.63
2018-10-09T06:37:40.315Z,101883.74
2018-10-09T06:40:08.460Z,101883.84
2018-10-09T06:42:36.716Z,101890.07
2018-10-09T06:45:04.833Z,101893.07
2018-10-09T06:47:33.095Z,101888.92
2018-10-09T06:50:01.324Z,101895.40
2018-10-09T06:52:29.563Z,101890.95
2018-10-09T06:54:57.841Z,101895.07
2018-10-09T06:57:26.529Z,101897.02
2018-10-09T06:59:54.875Z,101892.35
2018-10-09T07:02:23.056Z,101900.14
2018-10-09T07:04:51.182Z,101905.13
2018-10-09T07:07:19.376Z,101903.97
2018-10-09T07:09:47.552Z,101904.24
2018-10-09T07:12:15.810Z,101915.20
2018-10-09T07:14:44.278Z,101918.19
2018-10-09T07:17:12.549Z,101918.81
2018-10-09T07:19:40.724Z,101915.95
2018-10-09T07:22:08.852Z,101910.34
2018-10-09T07:24:37.091Z,101910.18
2018-10-09T07:27:05.316Z,101913.05
2018-10-09T07:29:48.340Z,101910.59
2018-10-09T07:32:16.552Z,101922.31
2018-10-09T07:34:45.004Z,101925.05
2018-10-09T07:37:13.833Z,101928.31
2018-10-09T07:39:42.092Z,101920.25
2018-10-09T07:42:10.288Z,101924.52
2018-10-09T07:44:38.767Z,101919.74
2018-10-09T07:47:06.945Z,101931.72
2018-10-09T07:49:35.172Z,101932.45
2018-10-09T07:52:03.363Z,101939.45
2018-10-09T07:54:31.585Z,101932.70
2018-10-09T07:56:59.723Z,101932.08
2018-10-09T08:02:12.561Z,101937.69
2018-10-09T08:04:40.839Z,101933.94
2018-10-09T08:07:09.115Z,101941.26
2018-10-09T08:09:37.388Z,101938.34
2018-10-09T08:12:05.728Z,101937.53
2018-10-09T08:14:34.322Z,101932.33
2018-10-09T08:17:02.560Z,101935.66
2018-10-09T08:19:30.866Z,101939.80
2018-10-09T08:21:59.063Z,101942.48
2018-10-09T08:24:27.250Z,101953.95
2018-10-09T08:26:55.486Z,101957.98
2018-10-09T08:29:23.909Z,101958.95
2018-10-09T08:31:52.498Z,101963.77
2018-10-09T08:34:21.430Z,101958.34
2018-10-09T08:36:49.640Z,101957.83
2018-10-09T08:39:17.866Z,101957.01
2018-10-09T08:41:46.080Z,101956.89
2018-10-09T08:44:14.249Z,101965.61
2018-10-09T08:46:44.321Z,101963.30
2018-10-09T08:49:12.875Z,101970.69
2018-10-09T08:51:41.140Z,101966.06
2018-10-09T08:54:09.327Z,101966.39
2018-10-09T08:56:37.515Z,101975.68
2018-10-09T08:59:05.776Z,101972.95
2018-10-09T09:01:33.954Z,101973.61
2018-10-09T09:04:02.348Z,101976.98
2018-10-09T09:06:30.611Z,101971.65
2018-10-09T09:08:58.816Z,101970.09
2018-10-09T09:11:27.135Z,101970.89
2018-10-09T09:13:55.656Z,101973.80
2018-10-09T09:16:23.817Z,101983.76
2018-10-09T09:18:51.974Z,101988.60
2018-10-09T09:21:20.333Z,101981.95
2018-10-09T09:23:48.520Z,101990.14
2018-10-09T09:26:16.811Z,101992.87
2018-10-09T09:28:45.024Z,101995.48
2018-10-09T09:31:13.212Z,101993.70
2018-10-09T09:33:41.390Z,101992.16
2018-10-09T09:36:09.518Z,101996.05
2018-10-09T09:38:37.663Z,101990.53
2018-10-09T09:41:06.008Z,101996.86
2018-10-09T09:43:34.195Z,101998.61
2018-10-09T09:46:02.417Z,101996.79
2018-10-09T09:48:30.589Z,101985.55
2018-10-09T09:50:58.739Z,101991.05
2018-10-09T09:53:26.909Z,101988.86
2018-10-09T09:55:55.083Z,101989.02
2018-10-09T09:58:23.359Z,101986.73
2018-10-09T10:00:56.019Z,101982.12
2018-10-09T10:03:24.184Z,101989.20
2018-10-09T10:05:52.429Z,101983.75
2018-10-09T10:08:20.606Z,101985.23
2018-10-09T10:10:48.774Z,101975.59
2018-10-09T10:13:17.017Z,101976.66
2018-10-09T10:15:45.189Z,101968.73
2018-10-09T10:18:13.665Z,101972.30
2018-10-09T10:20:41.806Z,101971.88
2018-10-09T10:23:10.152Z,101979.80
2018-10-09T10:25:38.428Z,101976.56
2018-10-09T10:28:06.808Z,101980.84
2018-10-09T10:30:34.998Z,101975.13
2018-10-09T10:33:03.176Z,101974.08
2018-10-09T10:35:31.460Z,101972.61
2018-10-09T10:37:59.663Z,101974.98
2018-10-09T10:40:27.826Z,101971.16
2018-10-09T10:42:56.042Z,101977.37
2018-10-09T10:45:24.233Z,101976.18
2018-10-09T10:47:52.420Z,101973.18
2018-10-09T10:50:20.638Z,101963.97
2018-10-09T10:52:48.826Z,101967.98
2018-10-09T10:55:17.079Z,101964.23
2018-10-09T10:57:45.285Z,101965.34
2018-10-09T11:00:13.423Z,101964.81
2018-10-09T11:02:41.556Z,101965.24
2018-10-09T11:05:09.747Z,101959.03
2018-10-09T11:07:38.412Z,101951.34
2018-10-09T11:10:06.904Z,101953.30
2018-10-09T11:12:35.122Z,101947.41
2018-10-09T11:15:03.286Z,101946.23
2018-10-09T11:17:31.553Z,101940.04
2018-10-09T11:20:00.301Z,101935.36
2018-10-09T11:22:28.576Z,101932.62
2018-10-09T11:24:56.801Z,101928.89
2018-10-09T11:27:25.013Z,101928.30
2018-10-09T11:29:53.225Z,101921.54
2018-10-09T11:32:22.092Z,101912.59
2018-10-09T11:34:50.317Z,101919.33
2018-10-09T11:37:18.533Z,101911.75
2018-10-09T11:39:46.724Z,101910.77
2018-10-09T11:42:14.945Z,101904.40
2018-10-09T11:44:43.119Z,101910.39
2018-10-09T11:47:11.353Z,101908.16
2018-10-09T11:52:17.448Z,101902.81
2018-10-09T11:54:45.639Z,101902.91
2018-10-09T11:57:13.869Z,101908.42
2018-10-09T11:59:48.780Z,101906.23
2018-10-09T12:02:17.026Z,101903.41
2018-10-09T12:04:45.218Z,101909.74
2018-10-09T12:07:13.348Z,101913.25
2018-10-09T12:09:42.199Z,101913.00
2018-10-09T12:12:10.431Z,101907.99
2018-10-09T12:14:38.645Z,101913.80
2018-10-09T12:17:07.327Z,101909.55
2018-10-09T12:19:35.795Z,101907.30
2018-10-09T12:22:03.995Z,101905.20
2018-10-09T12:24:32.159Z,101905.34
2018-10-09T12:27:00.309Z,101905.73
2018-10-09T12:29:28.500Z,101908.95
2018-10-09T12:31:56.652Z,101899.80
2018-10-09T12:37:01.602Z,101900.72
2018-10-09T12:39:29.795Z,101903.94
2018-10-09T12:41:58.037Z,101893.59
2018-10-09T12:44:28.052Z,101892.62
2018-10-09T12:46:56.225Z,101891.14
2018-10-09T12:49:24.403Z,101893.38
2018-10-09T12:51:53.167Z,101897.10
2018-10-09T12:54:21.445Z,101891.48
2018-10-09T12:56:49.640Z,101894.03
2018-10-09T12:59:18.015Z,101889.53
2018-10-09T13:01:46.269Z,101888.67
2018-10-09T13:04:14.477Z,101884.56
2018-10-09T13:06:42.738Z,101888.14
2018-10-09T13:09:12.643Z,101889.45
2018-10-09T13:11:40.810Z,101883.76
2018-10-09T13:14:08.970Z,101883.36
2018-10-09T13:16:37.187Z,101873.14
2018-10-09T13:19:05.597Z,101872.27
2018-10-09T13:21:34.030Z,101873.94
2018-10-09T13:24:02.050Z,101872.39
2018-10-09T13:26:30.247Z,101875.69
2018-10-09T13:28:58.456Z,101871.87
2018-10-09T13:31:26.652Z,101875.81
2018-10-09T13:33:54.872Z,101875.51
2018-10-09T13:36:23.025Z,101878.01
2018-10-09T13:38:51.173Z,101875.23
2018-10-09T13:41:19.300Z,101878.92
2018-10-09T13:43:47.540Z,101877.27
2018-10-09T13:46:16.212Z,101871.26
2018-10-09T13:48:44.408Z,101868.28
2018-10-09T13:51:12.580Z,101866.29
2018-10-09T13:53:40.805Z,101856.75
2018-10-09T13:56:08.959Z,101857.20
2018-10-09T13:58:38.840Z,101853.80
2018-10-09T14:01:07.408Z,101848.00
2018-10-09T14:03:35.566Z,101845.84
2018-10-09T14:06:03.837Z,101839.27
2018-10-09T14:08:32.060Z,101832.81
2018-10-09T14:11:00.233Z,101836.63
2018-10-09T14:13:28.422Z,101832.01
2018-10-09T14:15:56.591Z,101826.70
2018-10-09T14:18:24.872Z,101827.42
2018-10-09T14:20:53.070Z,101823.87
2018-10-09T14:23:21.307Z,101821.02
2018-10-09T14:25:49.513Z,101809.78
2018-10-09T14:28:17.752Z,101813.32
2018-10-09T14:30:46.663Z,101804.77
2018-10-09T14:33:14.791Z,101798.97
2018-10-09T14:35:43.585Z,101796.09
2018-10-09T14:38:11.795Z,101794.14
2018-10-09T14:40:43.348Z,101793.66
2018-10-09T14:43:11.532Z,101796.78
2018-10-09T14:45:39.792Z,101795.47
2018-10-09T14:48:07.997Z,101803.23
2018-10-09T14:50:36.233Z,101802.48
2018-10-09T14:53:04.441Z,101801.50
2018-10-09T14:55:33.032Z,101801.72
2018-10-09T14:58:01.195Z,101795.00
2018-10-09T15:00:29.441Z,101799.69
2018-10-09T15:02:57.698Z,101803.23
2018-10-09T15:05:25.890Z,101797.27
2018-10-09T15:07:54.044Z,101797.45
2018-10-09T15:10:22.305Z,101801.00
2018-10-09T15:12:50.486Z,101796.61
2018-10-09T15:15:18.724Z,101805.07
2018-10-09T15:17:46.850Z,101811.73
2018-10-09T15:20:15.554Z,101808.45
2018-10-09T15:22:43.854Z,101814.84
2018-10-09T15:25:12.050Z,101814.65
2018-10-09T15:27:40.202Z,101820.33
2018-10-09T15:30:08.466Z,101817.27
2018-10-09T15:32:38.657Z,101819.13
2018-10-09T15:35:06.797Z,101819.75
2018-10-09T15:37:35.010Z,101830.18
2018-10-09T15:40:03.895Z,101831.39
2018-10-09T15:42:32.114Z,101829.31
2018-10-09T15:45:00.218Z,101826.79
2018-10-09T15:47:28.504Z,101828.88
2018-10-09T15:49:56.701Z,101840.67
2018-10-09T15:52:24.973Z,101832.42
2018-10-09T15:54:53.243Z,101841.83
2018-10-09T15:57:21.455Z,101842.44
2018-10-09T15:59:49.729Z,101848.09
2018-10-09T16:02:17.921Z,101841.83
2018-10-09T16:04:46.115Z,101846.92
2018-10-09T16:07:14.310Z,101844.16
2018-10-09T16:09:42.480Z,101842.19
2018-10-09T16:12:11.151Z,101842.08
2018-10-09T16:14:39.952Z,101839.20
2018-10-09T16:17:10.566Z,101837.01
2018-10-09T16:19:38.779Z,101843.50
2018-10-09T16:22:07.006Z,101847.54
2018-10-09T16:24:35.158Z,101850.86
2018-10-09T16:27:03.329Z,101852.67
2018-10-09T16:29:32.733Z,101853.78
2018-10-09T16:32:00.934Z,101852.25
2018-10-09T16:34:29.111Z,101858.66
2018-10-09T16:36:57.454Z,101857.20
2018-10-09T16:39:25.945Z,101853.69
2018-10-09T16:41:54.760Z,101852.09
2018-10-09T16:44:22.920Z,101857.72
2018-10-09T16:46:51.175Z,101852.92
2018-10-09T16:49:19.781Z,101861.18
2018-10-09T16:51:47.998Z,101862.67
2018-10-09T16:54:16.150Z,101871.48
2018-10-09T16:56:44.323Z,101872.16
2018-10-09T16:59:12.529Z,101870.91
2018-10-09T17:01:41.416Z,101869.73
2018-10-09T17:04:10.420Z,101866.94
2018-10-09T17:06:39.408Z,101873.34
2018-10-09T17:09:09.323Z,101875.32
2018-10-09T17:11:37.930Z,101882.13
2018-10-09T17:14:06.237Z,101880.87
2018-10-09T17:16:34.380Z,101885.73
2018-10-09T17:19:03.865Z,101886.32
2018-10-09T17:21:32.021Z,101894.54
2018-10-09T17:24:00.815Z,101894.07
2018-10-09T17:26:29.027Z,101899.19
2018-10-09T17:28:57.300Z,101896.40
2018-10-09T17:31:25.643Z,101903.64
2018-10-09T17:33:53.895Z,101897.16
2018-10-09T17:36:22.329Z,101898.63
2018-10-09T17:38:50.899Z,101898.99
2018-10-09T17:41:19.263Z,101904.55
2018-10-09T18:29:49.739Z,101895.58
2018-10-09T18:32:18.010Z,101895.40
2018-10-09T18:34:46.567Z,101893.24
2018-10-09T18:37:14.811Z,101894.20
2018-10-09T18:39:45.163Z,101890.17
2018-10-09T18:42:13.371Z,101892.51
2018-10-09T18:44:42.072Z,101893.85
2018-10-09T18:47:14.851Z,101895.23
2018-10-09T18:49:43.710Z,101898.37
2018-10-09T18:52:12.342Z,101893.48
2018-10-09T18:54:40.561Z,101907.03
2018-10-09T18:57:08.792Z,101906.31
2018-10-09T18:59:37.041Z,101906.22
2018-10-09T19:02:05.373Z,101904.58
2018-10-09T19:04:35.678Z,101903.38
2018-10-09T19:07:04.214Z,101903.38
2018-10-09T19:09:33.096Z,101903.66
2018-10-09T19:12:01.621Z,101903.73
2018-10-09T19:14:29.893Z,101908.26
2018-10-09T19:16:58.106Z,101905.88
2018-10-09T19:19:26.664Z,101907.64
2018-10-09T19:21:54.875Z,101906.48
2018-10-09T19:24:23.152Z,101908.45
2018-10-09T19:26:51.388Z,101912.79
2018-10-09T19:29:20.130Z,101912.71
2018-10-09T19:31:48.471Z,101924.06
2018-10-09T19:34:17.291Z,101920.37
2018-10-09T19:36:45.562Z,101917.95
2018-10-09T19:39:15.327Z,101917.70
2018-10-09T19:41:43.546Z,101915.37
2018-10-09T19:44:12.114Z,101918.62
2018-10-09T19:46:42.080Z,101918.73
2018-10-09T19:49:10.947Z,101917.30
2018-10-09T19:54:28.864Z,101914.22
2018-10-09T19:56:57.178Z,101918.39
2018-10-09T19:59:25.452Z,101912.22
2018-10-09T20:01:53.620Z,101916.07
2018-10-09T20:04:21.916Z,101912.16
2018-10-09T20:06:50.139Z,101906.50
2018-10-09T20:09:18.395Z,101908.30
2018-10-09T20:11:46.680Z,101906.11
2018-10-09T20:14:15.356Z,101908.01
2018-10-09T20:16:43.804Z,101906.80
2018-10-09T20:19:12.599Z,101912.22
2018-10-09T20:21:40.774Z,101917.24
2018-10-09T20:24:08.975Z,101914.09
2018-10-09T20:26:37.241Z,101918.80
2018-10-09T20:29:05.749Z,101912.22
2018-10-09T20:31:33.993Z,101918.00
2018-10-09T20:34:02.178Z,101923.95
2018-10-09T20:36:30.436Z,101926.94
2018-10-09T20:39:06.503Z,101931.08
2018-10-09T20:41:34.792Z,101930.31
2018-10-09T20:44:03.018Z,101929.38
2018-10-09T20:46:31.165Z,101928.33
2018-10-09T20:48:59.344Z,101929.50
2018-10-09T20:51:27.523Z,101935.47
2018-10-09T20:53:55.714Z,101937.92
2018-10-09T20:56:23.910Z,101938.75
2018-10-09T20:58:52.076Z,101935.19
2018-10-09T21:01:20.247Z,101932.23
2018-10-09T21:03:48.468Z,101932.86
2018-10-09T21:06:16.785Z,101937.36
2018-10-09T21:08:44.957Z,101935.92
2018-10-09T21:11:13.216Z,101939.45
2018-10-09T21:13:41.589Z,101941.05
2018-10-09T21:16:10.386Z,101937.05
2018-10-09T21:18:38.584Z,101937.32
2018-10-09T21:21:07.219Z,101939.38
2018-10-09T21:23:35.734Z,101938.89
2018-10-09T21:26:03.898Z,101942.09
2018-10-09T21:28:32.048Z,101940.37
2018-10-09T21:31:01.161Z,101937.50
2018-10-09T21:33:29.364Z,101938.98
2018-10-09T21:35:57.530Z,101940.89
2018-10-09T21:38:25.958Z,101943.64
2018-10-09T21:40:54.137Z,101945.03
2018-10-09T21:43:22.348Z,101938.21
2018-10-09T21:45:50.541Z,101940.16
2018-10-09T21:48:18.737Z,101938.42
2018-10-09T21:50:46.864Z,101947.41
2018-10-09T21:53:15.071Z,101941.26
2018-10-09T21:55:43.212Z,101950.09
2018-10-09T21:58:11.422Z,101948.98
2018-10-09T22:00:45.058Z,101953.41
2018-10-09T22:03:13.372Z,101947.96
2018-10-09T22:05:41.606Z,101946.98
2018-10-09T22:08:09.873Z,101946.52
2018-10-09T22:10:38.027Z,101952.55
2018-10-09T22:13:06.419Z,101950.91
2018-10-09T22:15:34.624Z,101954.59
2018-10-09T22:18:02.820Z,101952.36
2018-10-09T22:20:30.993Z,101956.98
2018-10-09T22:22:59.143Z,101958.84
2018-10-09T22:25:27.315Z,101953.58
2018-10-09T22:27:56.100Z,101960.64
2018-10-09T22:30:24.275Z,101958.13
2018-10-09T22:32:52.410Z,101958.57
2018-10-09T22:35:20.590Z,101958.66
2018-10-09T22:37:48.777Z,101954.41
2018-10-09T22:40:16.992Z,101948.22
2018-10-09T22:42:45.125Z,101958.48
2018-10-09T22:45:13.319Z,101956.38
2018-10-09T22:47:41.768Z,101948.41
2018-10-09T22:50:09.907Z,101953.69
2018-10-09T22:52:38.035Z,101951.98
2018-10-09T22:55:06.890Z,101958.14
2018-10-09T22:57:35.134Z,101958.31
2018-10-09T23:00:03.308Z,101957.30
2018-10-09T23:02:31.409Z,101959.20
2018-10-09T23:04:59.557Z,101953.76
2018-10-09T23:07:27.708Z,101954.91
2018-10-09T23:09:55.838Z,101958.95
2018-10-09T23:12:23.953Z,101952.13
2018-10-09T23:14:52.165Z,101962.23
2018-10-09T23:17:20.312Z,101968.08
2018-10-09T23:19:48.449Z,101964.17
2018-10-09T23:22:16.603Z,101975.06
2018-10-09T23:24:44.741Z,101964.16
2018-10-09T23:27:13.181Z,101961.48
2018-10-09T23:29:41.326Z,101958.40
2018-10-09T23:32:09.474Z,101962.73
2018-10-09T23:34:37.609Z,101964.59
2018-10-09T23:37:05.746Z,101964.82
2018-10-09T23:39:33.881Z,101963.67
2018-10-09T23:42:02.056Z,101967.44
2018-10-09T23:44:30.236Z,101968.38
2018-10-09T23:46:58.402Z,101965.78
2018-10-09T23:49:26.550Z,101962.86
2018-10-09T23:51:54.673Z,101958.32
2018-10-09T23:54:22.869Z,101968.05
2018-10-09T23:56:51.024Z,101959.13
2018-10-09T23:59:19.241Z,101962.47
